createdAt,value
2023-02-15T00:03:10.348Z,2.40
2023-02-15T00:08:32.345Z,2.51
2023-02-15T00:13:52.954Z,2.29
2023-02-15T00:19:15.808Z,2.38
2023-02-15T00:24:36.776Z,2.47
2023-02-15T00:29:57.462Z,2.55
2023-02-15T00:35:18.047Z,2.39
2023-02-15T00:40:38.843Z,2.43
2023-02-15T00:46:00.882Z,2.23
2023-02-15T00:51:21.710Z,2.11
2023-02-15T00:56:42.371Z,2.04
2023-02-15T01:02:04.148Z,2.14
2023-02-15T01:07:24.772Z,2.18
2023-02-15T01:12:47.051Z,2.35
2023-02-15T01:18:07.791Z,2.36
2023-02-15T01:23:28.547Z,2.46
2023-02-15T01:28:49.218Z,2.48
2023-02-15T01:34:10.959Z,2.33
2023-02-15T01:39:33.238Z,2.29
2023-02-15T01:44:59.511Z,2.24
2023-02-15T01:50:25.012Z,2.39
2023-02-15T01:56:00.083Z,2.31
2023-02-15T02:01:21.009Z,2.16
2023-02-15T02:06:42.219Z,2.32
2023-02-15T02:12:03.510Z,2.43
2023-02-15T02:17:43.272Z,2.17
2023-02-15T02:23:13.938Z,1.93
2023-02-15T02:28:43.808Z,1.97
2023-02-15T02:34:21.587Z,1.85
2023-02-15T02:39:55.985Z,1.94
2023-02-15T02:45:21.070Z,1.90
2023-02-15T02:50:43.666Z,1.84
2023-02-15T02:56:08.383Z,1.59
2023-02-15T03:01:42.370Z,1.55
2023-02-15T03:07:10.891Z,1.67
2023-02-15T03:12:41.195Z,1.82
2023-02-15T03:18:03.813Z,1.90
2023-02-15T03:23:26.672Z,1.71
2023-02-15T03:28:52.013Z,1.54
2023-02-15T03:34:15.221Z,1.55
2023-02-15T03:39:43.226Z,1.49
2023-02-15T03:45:12.319Z,1.56
2023-02-15T03:50:56.053Z,1.71
2023-02-15T03:56:16.769Z,1.73
2023-02-15T04:01:58.551Z,1.57
2023-02-15T04:07:19.642Z,1.17
2023-02-15T04:12:40.519Z,1.05
2023-02-15T04:18:04.249Z,1.13
2023-02-15T04:23:43.523Z,1.32
2023-02-15T04:29:04.155Z,1.34
2023-02-15T04:34:25.706Z,1.08
2023-02-15T04:39:46.551Z,0.84
2023-02-15T04:45:07.728Z,0.90
2023-02-15T04:50:28.371Z,0.89
2023-02-15T04:55:49.206Z,0.75
2023-02-15T05:01:10.119Z,0.95
2023-02-15T05:06:31.324Z,1.00
2023-02-15T05:11:52.102Z,0.95
2023-02-15T05:17:12.655Z,0.95
2023-02-15T05:22:33.471Z,0.87
2023-02-15T05:28:12.747Z,0.81
2023-02-15T05:33:34.499Z,0.72
2023-02-15T05:38:56.145Z,0.64
2023-02-15T05:44:17.126Z,0.74
2023-02-15T05:49:37.794Z,0.72
2023-02-15T05:54:59.123Z,0.66
2023-02-15T06:00:20.318Z,1.00
2023-02-15T06:05:41.384Z,1.01
2023-02-15T06:11:02.143Z,1.08
2023-02-15T06:16:23.134Z,0.76
2023-02-15T06:21:44.614Z,0.52
2023-02-15T06:27:05.533Z,0.51
2023-02-15T06:32:26.186Z,0.54
2023-02-15T06:37:47.715Z,0.52
2023-02-15T06:43:08.650Z,0.40
2023-02-15T06:48:29.414Z,0.27
2023-02-15T06:53:50.256Z,0.05
2023-02-15T06:59:10.959Z,-0.04
2023-02-15T07:04:31.894Z,-0.03
2023-02-15T07:09:52.595Z,0.12
2023-02-15T07:15:17.321Z,0.22
2023-02-15T07:20:38.610Z,0.33
2023-02-15T07:26:00.481Z,0.33
2023-02-15T07:31:21.493Z,0.23
2023-02-15T07:36:42.521Z,0.27
2023-02-15T07:42:03.252Z,0.23
2023-02-15T07:47:27.352Z,0.19
2023-02-15T07:52:48.314Z,0.15
2023-02-15T07:58:09.300Z,0.17
2023-02-15T08:03:30.260Z,0.18
2023-02-15T08:08:51.115Z,0.11
2023-02-15T08:14:14.301Z,0.08
2023-02-15T08:19:35.761Z,0.07
2023-02-15T08:24:56.719Z,0.12
2023-02-15T08:30:17.385Z,0.12
2023-02-15T08:35:38.425Z,0.07
2023-02-15T08:41:12.241Z,0.11
2023-02-15T08:46:38.506Z,0.11
2023-02-15T08:51:59.315Z,0.08
2023-02-15T08:57:20.019Z,0.04
2023-02-15T09:02:40.681Z,0.11
2023-02-15T09:08:01.383Z,0.37
2023-02-15T09:13:22.256Z,0.54
2023-02-15T09:18:42.864Z,0.57
2023-02-15T09:24:07.372Z,1.45
2023-02-15T09:29:28.177Z,1.41
2023-02-15T09:34:49.302Z,1.14
2023-02-15T09:40:15.661Z,1.06
2023-02-15T09:46:06.918Z,1.08
2023-02-15T09:52:05.267Z,0.97
2023-02-15T09:57:35.675Z,0.93
2023-02-15T10:03:09.961Z,0.82
2023-02-15T10:08:39.874Z,0.80
2023-02-15T10:14:18.913Z,0.81
2023-02-15T10:20:00.136Z,0.69
2023-02-15T10:25:39.671Z,0.60
2023-02-15T10:31:45.098Z,0.81
2023-02-15T10:37:31.664Z,0.79
2023-02-15T10:42:55.810Z,0.85
2023-02-15T10:48:35.048Z,0.87
2023-02-15T10:54:15.056Z,0.94
2023-02-15T11:00:03.078Z,0.84
2023-02-15T11:05:42.441Z,0.93
2023-02-15T11:11:11.698Z,0.98
2023-02-15T11:16:41.756Z,1.03
2023-02-15T11:22:06.275Z,1.06
2023-02-15T11:27:34.256Z,1.31
2023-02-15T11:32:58.799Z,1.42
2023-02-15T11:38:26.821Z,1.43
2023-02-15T11:44:06.170Z,1.47
2023-02-15T11:49:33.590Z,1.49
2023-02-15T11:54:54.816Z,1.46
2023-02-15T12:00:25.851Z,1.42
2023-02-15T12:05:50.960Z,1.51
2023-02-15T12:11:20.799Z,1.66
2023-02-15T12:16:54.462Z,1.67
2023-02-15T12:22:29.725Z,1.66
2023-02-15T12:27:51.507Z,2.06
2023-02-15T12:33:22.355Z,2.15
2023-02-15T12:38:43.271Z,2.26
2023-02-15T12:44:26.977Z,2.42
2023-02-15T12:50:12.269Z,2.40
2023-02-15T12:55:33.530Z,2.46
2023-02-15T13:01:09.973Z,2.61
2023-02-15T13:06:36.691Z,2.72
2023-02-15T13:12:09.995Z,3.02
2023-02-15T13:17:35.553Z,3.63
2023-02-15T13:23:06.979Z,5.25
2023-02-15T13:28:59.437Z,6.27
2023-02-15T13:34:33.518Z,5.44
2023-02-15T13:40:02.710Z,4.97
2023-02-15T13:45:53.362Z,4.74
2023-02-15T13:51:21.217Z,4.56
2023-02-15T13:57:03.906Z,4.38
2023-02-15T14:02:38.970Z,4.15
2023-02-15T14:08:15.754Z,4.16
2023-02-15T14:14:07.744Z,4.26
2023-02-15T14:19:46.825Z,4.33
2023-02-15T14:25:18.433Z,4.41
2023-02-15T14:30:42.587Z,4.48
2023-02-15T14:36:07.302Z,4.49
2023-02-15T14:41:54.395Z,4.57
2023-02-15T14:47:26.853Z,4.54
2023-02-15T14:53:37.550Z,4.44
2023-02-15T14:59:20.510Z,4.30
2023-02-15T15:04:46.250Z,4.26
2023-02-15T15:10:27.573Z,4.15
2023-02-15T15:15:48.594Z,4.10
2023-02-15T15:21:09.884Z,4.07
2023-02-15T15:26:41.747Z,4.07
2023-02-15T15:32:03.452Z,3.98
2023-02-15T15:37:45.998Z,4.00
2023-02-15T15:43:22.170Z,3.93
2023-02-15T15:48:43.252Z,3.87
2023-02-15T15:54:04.949Z,3.78
2023-02-15T15:59:32.013Z,3.66
2023-02-15T16:04:52.905Z,3.59
2023-02-15T16:10:41.415Z,3.60
2023-02-15T16:16:02.897Z,3.44
2023-02-15T16:21:29.721Z,5.08
2023-02-15T16:27:08.686Z,4.67
2023-02-15T16:32:29.785Z,4.34
2023-02-15T16:37:50.523Z,3.87
2023-02-15T16:43:22.548Z,3.47
2023-02-15T16:48:47.996Z,3.16
2023-02-15T16:54:16.416Z,3.08
2023-02-15T16:59:44.431Z,3.07
2023-02-15T17:05:10.923Z,3.03
2023-02-15T17:10:36.471Z,2.63
2023-02-15T17:16:03.572Z,2.34
2023-02-15T17:21:29.476Z,2.18
2023-02-15T17:27:00.598Z,2.24
2023-02-15T17:32:27.257Z,2.31
2023-02-15T17:37:52.127Z,2.25
2023-02-15T17:43:12.950Z,2.45
2023-02-15T17:48:36.591Z,2.35
2023-02-15T17:54:15.943Z,2.16
2023-02-15T17:59:55.612Z,2.08
2023-02-15T18:05:35.598Z,2.23
2023-02-15T18:11:15.000Z,2.13
2023-02-15T18:16:43.436Z,2.13
2023-02-15T18:22:14.594Z,2.31
2023-02-15T18:27:35.178Z,2.29
2023-02-15T18:32:58.902Z,2.05
2023-02-15T18:38:22.238Z,1.90
2023-02-15T18:43:43.279Z,2.19
2023-02-15T18:49:05.277Z,2.31
2023-02-15T18:54:26.032Z,2.34
2023-02-15T18:59:46.796Z,2.17
2023-02-15T19:05:07.635Z,1.86
2023-02-15T19:10:31.517Z,1.67
2023-02-15T19:15:52.191Z,1.58
2023-02-15T19:21:18.609Z,1.66
2023-02-15T19:26:45.691Z,1.82
2023-02-15T19:32:06.899Z,1.86
2023-02-15T19:37:35.016Z,1.66
2023-02-15T19:42:56.358Z,1.41
2023-02-15T19:48:20.718Z,1.26
2023-02-15T19:53:41.715Z,1.23
2023-02-15T19:59:02.772Z,2.21
2023-02-15T20:04:25.129Z,2.10
2023-02-15T20:09:47.678Z,1.98
2023-02-15T20:15:30.042Z,1.98
2023-02-15T20:20:53.304Z,1.52
2023-02-15T20:26:18.477Z,1.37
2023-02-15T20:31:39.735Z,1.05
2023-02-15T20:37:01.122Z,0.72
2023-02-15T20:42:21.888Z,0.60
2023-02-15T20:47:44.469Z,0.71
2023-02-15T20:53:09.785Z,0.89
2023-02-15T20:58:30.679Z,0.82
2023-02-15T21:03:51.555Z,0.81
2023-02-15T21:09:16.805Z,0.71
2023-02-15T21:14:37.833Z,0.63
2023-02-15T21:19:58.959Z,0.38
2023-02-15T21:25:26.548Z,0.48
2023-02-15T21:30:48.916Z,0.42
2023-02-15T21:36:16.288Z,0.36
2023-02-15T21:41:55.730Z,0.37
2023-02-15T21:47:43.306Z,0.35
2023-02-15T21:53:05.998Z,0.41
2023-02-15T21:58:29.492Z,0.48
2023-02-15T22:03:52.346Z,0.42
2023-02-15T22:09:18.139Z,0.38
2023-02-15T22:14:41.714Z,0.49
2023-02-15T22:20:02.739Z,0.57
2023-02-15T22:25:25.187Z,0.44
2023-02-15T22:30:46.064Z,0.26
2023-02-15T22:36:07.180Z,0.27
2023-02-15T22:41:31.264Z,-0.12
2023-02-15T22:46:53.151Z,-0.33
2023-02-15T22:52:14.406Z,-0.22
2023-02-15T22:57:35.553Z,-0.09
2023-02-15T23:02:56.693Z,-0.21
2023-02-15T23:08:17.827Z,-0.18
2023-02-15T23:13:38.433Z,-0.11
2023-02-15T23:18:59.269Z,-0.27
2023-02-15T23:24:28.640Z,-0.19
2023-02-15T23:29:49.683Z,-0.32
2023-02-15T23:35:16.145Z,-0.42
2023-02-15T23:40:55.565Z,-0.21
2023-02-15T23:46:29.168Z,-0.11
2023-02-15T23:51:52.438Z,0.01
2023-02-15T23:57:13.319Z,0.01
